Decoded Metar for KMRB (MARTINSBURG in WV, USA) (IATA:MRB) | Meteo·Mobile Aviation Weather
aviador You're here:

KMRB Decoded Metar

MARTINSBURG in WV, USA
Report Time2018-09-21 11:02:00
UTC Time2018-09-21 11:47:00
Flight Rules mvfr MVFR
Wind150° at 05 kt
W.Decomp.*RWY 08: 1.0 kt HW 4.9 kt RCW
W.Rank150° ranks 11
Current wind is below 150° avg. (5.8)
Visibility9999 m
Phenomena:N/A
Clouds:Broken 025 Hf
Overcast 033 Hf
Expected CloudBase > 1,200 ft AGL from Temp-Dew spread
Ceiling2,500 ft
Temp21°C (ISA +7)
Dew Point18°C (83% RH)
QNH1022 hPa
Density Alt1,335 ft
Elevation538 ft
Report Wrong Elevation
Raw Report
KMRB 211102Z 15005KT 10SM BKN025 OVC033 21/18 A3018 RMK AO2
T02060183=

Extra information for KMRB:More info

Metar Taf Metar & Taf Last 4 Metars F.Rules Stats Wind Profile Meteogram Temp Stats Airport Information Weather charts Add Link Nearby VenuesMetar ALERT Operation Metar Decoded Social comments

AIRNAV info for KMRB